sensor_id;sensor_type;location;lat;lon;timestamp;P1;durP1;ratioP1;P2;durP2;ratioP2
72674;SDS011;60752;53.962;9.614;2022-11-20T00:00:20;5.27;;;1.83;;
72674;SDS011;60752;53.962;9.614;2022-11-20T00:05:22;4.87;;;1.83;;
72674;SDS011;60752;53.962;9.614;2022-11-20T00:10:23;5.75;;;1.83;;
72674;SDS011;60752;53.962;9.614;2022-11-20T00:15:23;6.27;;;2.00;;
72674;SDS011;60752;53.962;9.614;2022-11-20T00:20:25;4.60;;;1.60;;
72674;SDS011;60752;53.962;9.614;2022-11-20T00:25:25;6.67;;;2.17;;
72674;SDS011;60752;53.962;9.614;2022-11-20T00:30:26;5.80;;;1.87;;
72674;SDS011;60752;53.962;9.614;2022-11-20T00:35:27;5.10;;;1.50;;
72674;SDS011;60752;53.962;9.614;2022-11-20T00:40:28;5.20;;;1.77;;
72674;SDS011;60752;53.962;9.614;2022-11-20T00:45:28;5.30;;;1.90;;
72674;SDS011;60752;53.962;9.614;2022-11-20T00:50:30;5.07;;;2.03;;
72674;SDS011;60752;53.962;9.614;2022-11-20T00:55:30;13.65;;;2.20;;
72674;SDS011;60752;53.962;9.614;2022-11-20T01:00:31;5.33;;;2.33;;
72674;SDS011;60752;53.962;9.614;2022-11-20T01:05:35;4.40;;;2.00;;
72674;SDS011;60752;53.962;9.614;2022-11-20T01:10:35;5.13;;;1.98;;
72674;SDS011;60752;53.962;9.614;2022-11-20T01:15:36;6.10;;;2.07;;
72674;SDS011;60752;53.962;9.614;2022-11-20T01:20:37;6.13;;;1.80;;
72674;SDS011;60752;53.962;9.614;2022-11-20T01:25:38;5.68;;;1.75;;
72674;SDS011;60752;53.962;9.614;2022-11-20T01:30:38;5.00;;;1.93;;
72674;SDS011;60752;53.962;9.614;2022-11-20T01:35:40;4.17;;;1.87;;
72674;SDS011;60752;53.962;9.614;2022-11-20T01:40:40;4.77;;;1.77;;
72674;SDS011;60752;53.962;9.614;2022-11-20T01:45:52;6.30;;;2.50;;
72674;SDS011;60752;53.962;9.614;2022-11-20T01:51:02;5.80;;;2.47;;
72674;SDS011;60752;53.962;9.614;2022-11-20T01:56:08;5.07;;;1.95;;
72674;SDS011;60752;53.962;9.614;2022-11-20T02:01:12;6.78;;;2.17;;
72674;SDS011;60752;53.962;9.614;2022-11-20T02:06:16;5.63;;;2.40;;
72674;SDS011;60752;53.962;9.614;2022-11-20T02:11:19;5.55;;;2.00;;
72674;SDS011;60752;53.962;9.614;2022-11-20T02:16:21;5.10;;;2.07;;
72674;SDS011;60752;53.962;9.614;2022-11-20T02:21:30;7.18;;;2.55;;
72674;SDS011;60752;53.962;9.614;2022-11-20T02:26:40;5.43;;;2.27;;
72674;SDS011;60752;53.962;9.614;2022-11-20T02:31:45;6.57;;;1.70;;
72674;SDS011;60752;53.962;9.614;2022-11-20T02:36:45;4.90;;;2.00;;
72674;SDS011;60752;53.962;9.614;2022-11-20T02:41:48;6.70;;;1.90;;
72674;SDS011;60752;53.962;9.614;2022-11-20T02:46:48;5.18;;;2.25;;
72674;SDS011;60752;53.962;9.614;2022-11-20T02:51:48;3.40;;;1.40;;
72674;SDS011;60752;53.962;9.614;2022-11-20T02:56:50;8.40;;;2.00;;
72674;SDS011;60752;53.962;9.614;2022-11-20T03:01:51;4.20;;;1.70;;
72674;SDS011;60752;53.962;9.614;2022-11-20T03:06:51;5.50;;;2.07;;
72674;SDS011;60752;53.962;9.614;2022-11-20T03:11:53;5.97;;;2.37;;
72674;SDS011;60752;53.962;9.614;2022-11-20T03:16:53;4.47;;;1.43;;
72674;SDS011;60752;53.962;9.614;2022-11-20T03:21:54;6.47;;;1.80;;
72674;SDS011;60752;53.962;9.614;2022-11-20T03:26:55;5.53;;;1.90;;
72674;SDS011;60752;53.962;9.614;2022-11-20T03:31:56;6.50;;;2.10;;
72674;SDS011;60752;53.962;9.614;2022-11-20T03:36:56;6.50;;;2.00;;
72674;SDS011;60752;53.962;9.614;2022-11-20T03:41:58;6.13;;;2.10;;
72674;SDS011;60752;53.962;9.614;2022-11-20T03:46:58;4.97;;;1.80;;
72674;SDS011;60752;53.962;9.614;2022-11-20T03:51:58;7.73;;;1.93;;
72674;SDS011;60752;53.962;9.614;2022-11-20T03:57:00;4.03;;;1.73;;
72674;SDS011;60752;53.962;9.614;2022-11-20T04:02:01;5.10;;;1.57;;
72674;SDS011;60752;53.962;9.614;2022-11-20T04:07:01;5.83;;;1.90;;
72674;SDS011;60752;53.962;9.614;2022-11-20T04:12:04;4.33;;;1.60;;
72674;SDS011;60752;53.962;9.614;2022-11-20T04:17:04;6.15;;;2.00;;
72674;SDS011;60752;53.962;9.614;2022-11-20T04:22:04;8.73;;;2.83;;
72674;SDS011;60752;53.962;9.614;2022-11-20T04:27:06;4.83;;;1.80;;
72674;SDS011;60752;53.962;9.614;2022-11-20T04:32:07;5.22;;;1.90;;
72674;SDS011;60752;53.962;9.614;2022-11-20T04:37:07;4.20;;;1.80;;
72674;SDS011;60752;53.962;9.614;2022-11-20T04:42:12;4.33;;;1.70;;
72674;SDS011;60752;53.962;9.614;2022-11-20T04:47:12;5.40;;;2.00;;
72674;SDS011;60752;53.962;9.614;2022-11-20T04:52:12;4.13;;;1.63;;
72674;SDS011;60752;53.962;9.614;2022-11-20T04:57:15;5.03;;;1.83;;
72674;SDS011;60752;53.962;9.614;2022-11-20T05:02:15;4.07;;;1.60;;
72674;SDS011;60752;53.962;9.614;2022-11-20T05:07:16;5.60;;;1.70;;
72674;SDS011;60752;53.962;9.614;2022-11-20T05:12:17;4.40;;;1.63;;
72674;SDS011;60752;53.962;9.614;2022-11-20T05:17:18;4.17;;;1.60;;
72674;SDS011;60752;53.962;9.614;2022-11-20T05:22:18;4.10;;;1.63;;
72674;SDS011;60752;53.962;9.614;2022-11-20T05:27:20;7.53;;;1.70;;
72674;SDS011;60752;53.962;9.614;2022-11-20T05:32:20;4.38;;;1.88;;
72674;SDS011;60752;53.962;9.614;2022-11-20T05:37:21;4.20;;;1.60;;
72674;SDS011;60752;53.962;9.614;2022-11-20T05:42:23;7.20;;;2.00;;
72674;SDS011;60752;53.962;9.614;2022-11-20T05:47:23;3.70;;;1.42;;
72674;SDS011;60752;53.962;9.614;2022-11-20T05:52:23;5.00;;;1.77;;
72674;SDS011;60752;53.962;9.614;2022-11-20T05:57:25;4.93;;;1.60;;
72674;SDS011;60752;53.962;9.614;2022-11-20T06:02:26;5.25;;;1.90;;
72674;SDS011;60752;53.962;9.614;2022-11-20T06:07:26;4.37;;;2.20;;
72674;SDS011;60752;53.962;9.614;2022-11-20T06:12:28;4.37;;;1.63;;
72674;SDS011;60752;53.962;9.614;2022-11-20T06:17:28;4.15;;;1.52;;
72674;SDS011;60752;53.962;9.614;2022-11-20T06:22:28;3.73;;;1.77;;
72674;SDS011;60752;53.962;9.614;2022-11-20T06:27:30;4.80;;;1.50;;
72674;SDS011;60752;53.962;9.614;2022-11-20T06:32:31;3.90;;;1.43;;
72674;SDS011;60752;53.962;9.614;2022-11-20T06:37:33;4.05;;;1.63;;
72674;SDS011;60752;53.962;9.614;2022-11-20T06:42:34;4.00;;;1.40;;
72674;SDS011;60752;53.962;9.614;2022-11-20T06:47:35;4.32;;;1.70;;
72674;SDS011;60752;53.962;9.614;2022-11-20T06:52:35;5.00;;;2.00;;
72674;SDS011;60752;53.962;9.614;2022-11-20T06:57:37;4.73;;;1.90;;
72674;SDS011;60752;53.962;9.614;2022-11-20T07:02:37;4.00;;;1.53;;
72674;SDS011;60752;53.962;9.614;2022-11-20T07:07:37;5.13;;;1.50;;
72674;SDS011;60752;53.962;9.614;2022-11-20T07:12:39;4.17;;;1.60;;
72674;SDS011;60752;53.962;9.614;2022-11-20T07:17:40;3.80;;;1.40;;
72674;SDS011;60752;53.962;9.614;2022-11-20T07:22:40;5.20;;;1.70;;
72674;SDS011;60752;53.962;9.614;2022-11-20T07:27:42;5.38;;;1.95;;
72674;SDS011;60752;53.962;9.614;2022-11-20T07:32:45;4.80;;;2.23;;
72674;SDS011;60752;53.962;9.614;2022-11-20T07:37:49;8.85;;;3.10;;
72674;SDS011;60752;53.962;9.614;2022-11-20T07:42:52;5.78;;;2.80;;
72674;SDS011;60752;53.962;9.614;2022-11-20T07:47:53;5.40;;;2.30;;
72674;SDS011;60752;53.962;9.614;2022-11-20T07:52:59;9.03;;;2.87;;
72674;SDS011;60752;53.962;9.614;2022-11-20T07:58:02;6.73;;;2.80;;
72674;SDS011;60752;53.962;9.614;2022-11-20T08:03:03;4.47;;;2.22;;
72674;SDS011;60752;53.962;9.614;2022-11-20T08:08:03;6.40;;;2.00;;
72674;SDS011;60752;53.962;9.614;2022-11-20T08:13:05;5.27;;;2.30;;
72674;SDS011;60752;53.962;9.614;2022-11-20T08:18:06;5.33;;;2.20;;
72674;SDS011;60752;53.962;9.614;2022-11-20T08:23:07;4.60;;;2.10;;
72674;SDS011;60752;53.962;9.614;2022-11-20T08:28:12;5.82;;;2.45;;
72674;SDS011;60752;53.962;9.614;2022-11-20T08:33:13;5.03;;;2.27;;
72674;SDS011;60752;53.962;9.614;2022-11-20T08:38:13;4.97;;;2.13;;
72674;SDS011;60752;53.962;9.614;2022-11-20T08:43:15;6.17;;;2.70;;
72674;SDS011;60752;53.962;9.614;2022-11-20T08:48:15;6.43;;;2.30;;
72674;SDS011;60752;53.962;9.614;2022-11-20T08:53:16;6.00;;;2.80;;
72674;SDS011;60752;53.962;9.614;2022-11-20T08:58:17;4.70;;;2.47;;
72674;SDS011;60752;53.962;9.614;2022-11-20T09:03:18;5.05;;;2.50;;
72674;SDS011;60752;53.962;9.614;2022-11-20T09:08:18;6.50;;;2.70;;
72674;SDS011;60752;53.962;9.614;2022-11-20T09:13:20;5.90;;;2.70;;
72674;SDS011;60752;53.962;9.614;2022-11-20T09:18:21;5.05;;;2.33;;
72674;SDS011;60752;53.962;9.614;2022-11-20T09:23:21;6.23;;;2.73;;
72674;SDS011;60752;53.962;9.614;2022-11-20T09:28:23;6.07;;;2.77;;
72674;SDS011;60752;53.962;9.614;2022-11-20T09:33:24;5.32;;;2.60;;
72674;SDS011;60752;53.962;9.614;2022-11-20T09:38:24;5.30;;;2.43;;
72674;SDS011;60752;53.962;9.614;2022-11-20T09:43:29;5.93;;;2.40;;
72674;SDS011;60752;53.962;9.614;2022-11-20T09:48:50;5.20;;;2.40;;
72674;SDS011;60752;53.962;9.614;2022-11-20T09:54:05;6.00;;;2.38;;
72674;SDS011;60752;53.962;9.614;2022-11-20T09:59:26;4.25;;;1.85;;
72674;SDS011;60752;53.962;9.614;2022-11-20T10:04:33;4.57;;;2.17;;
72674;SDS011;60752;53.962;9.614;2022-11-20T10:09:48;6.20;;;2.20;;
72674;SDS011;60752;53.962;9.614;2022-11-20T10:14:57;4.55;;;2.08;;
72674;SDS011;60752;53.962;9.614;2022-11-20T10:20:10;4.80;;;2.13;;
72674;SDS011;60752;53.962;9.614;2022-11-20T10:25:18;7.00;;;2.77;;
72674;SDS011;60752;53.962;9.614;2022-11-20T10:30:21;5.60;;;2.30;;
72674;SDS011;60752;53.962;9.614;2022-11-20T10:35:23;4.30;;;1.60;;
72674;SDS011;60752;53.962;9.614;2022-11-20T10:40:29;4.57;;;1.97;;
72674;SDS011;60752;53.962;9.614;2022-11-20T10:45:38;4.63;;;1.70;;
72674;SDS011;60752;53.962;9.614;2022-11-20T10:50:52;2.88;;;1.20;;
72674;SDS011;60752;53.962;9.614;2022-11-20T10:55:58;3.97;;;1.33;;
72674;SDS011;60752;53.962;9.614;2022-11-20T11:01:05;2.90;;;1.20;;
72674;SDS011;60752;53.962;9.614;2022-11-20T11:06:14;5.32;;;1.70;;
72674;SDS011;60752;53.962;9.614;2022-11-20T11:11:22;4.07;;;1.42;;
72674;SDS011;60752;53.962;9.614;2022-11-20T11:16:30;2.83;;;1.00;;
72674;SDS011;60752;53.962;9.614;2022-11-20T11:21:30;4.55;;;1.70;;
72674;SDS011;60752;53.962;9.614;2022-11-20T11:26:31;4.70;;;1.57;;
72674;SDS011;60752;53.962;9.614;2022-11-20T11:31:33;3.90;;;1.20;;
72674;SDS011;60752;53.962;9.614;2022-11-20T11:36:35;2.83;;;1.15;;
72674;SDS011;60752;53.962;9.614;2022-11-20T11:41:35;5.97;;;2.00;;
72674;SDS011;60752;53.962;9.614;2022-11-20T11:46:37;4.40;;;1.80;;
72674;SDS011;60752;53.962;9.614;2022-11-20T11:51:41;3.97;;;1.40;;
72674;SDS011;60752;53.962;9.614;2022-11-20T11:56:52;5.07;;;1.80;;
72674;SDS011;60752;53.962;9.614;2022-11-20T12:01:59;4.00;;;1.60;;
72674;SDS011;60752;53.962;9.614;2022-11-20T12:07:03;4.50;;;1.60;;
72674;SDS011;60752;53.962;9.614;2022-11-20T12:12:12;4.82;;;1.80;;
72674;SDS011;60752;53.962;9.614;2022-11-20T12:17:18;3.90;;;1.60;;
72674;SDS011;60752;53.962;9.614;2022-11-20T12:22:22;10.67;;;1.80;;
72674;SDS011;60752;53.962;9.614;2022-11-20T12:27:36;5.30;;;1.98;;
72674;SDS011;60752;53.962;9.614;2022-11-20T12:32:49;7.25;;;2.72;;
72674;SDS011;60752;53.962;9.614;2022-11-20T12:38:04;5.30;;;2.27;;
72674;SDS011;60752;53.962;9.614;2022-11-20T12:43:19;3.75;;;1.58;;
72674;SDS011;60752;53.962;9.614;2022-11-20T12:53:59;5.40;;;2.13;;
72674;SDS011;60752;53.962;9.614;2022-11-20T12:59:19;4.70;;;2.30;;
72674;SDS011;60752;53.962;9.614;2022-11-20T13:04:34;5.05;;;2.15;;
72674;SDS011;60752;53.962;9.614;2022-11-20T13:09:57;4.72;;;2.00;;
72674;SDS011;60752;53.962;9.614;2022-11-20T13:15:02;5.77;;;2.10;;
72674;SDS011;60752;53.962;9.614;2022-11-20T13:20:12;4.65;;;1.67;;
72674;SDS011;60752;53.962;9.614;2022-11-20T13:25:24;5.20;;;2.05;;
72674;SDS011;60752;53.962;9.614;2022-11-20T13:30:26;3.97;;;1.50;;
72674;SDS011;60752;53.962;9.614;2022-11-20T13:35:30;6.28;;;2.88;;
72674;SDS011;60752;53.962;9.614;2022-11-20T13:40:32;4.88;;;2.25;;
72674;SDS011;60752;53.962;9.614;2022-11-20T13:45:35;4.57;;;1.80;;
72674;SDS011;60752;53.962;9.614;2022-11-20T13:50:43;6.53;;;2.40;;
72674;SDS011;60752;53.962;9.614;2022-11-20T13:55:50;6.78;;;2.50;;
72674;SDS011;60752;53.962;9.614;2022-11-20T14:00:55;8.52;;;3.47;;
72674;SDS011;60752;53.962;9.614;2022-11-20T14:06:01;6.80;;;3.17;;
72674;SDS011;60752;53.962;9.614;2022-11-20T14:11:06;7.43;;;3.10;;
72674;SDS011;60752;53.962;9.614;2022-11-20T14:16:18;5.97;;;2.58;;
72674;SDS011;60752;53.962;9.614;2022-11-20T14:21:25;4.23;;;2.00;;
72674;SDS011;60752;53.962;9.614;2022-11-20T14:26:27;5.40;;;2.00;;
72674;SDS011;60752;53.962;9.614;2022-11-20T14:31:27;6.17;;;2.03;;
72674;SDS011;60752;53.962;9.614;2022-11-20T14:36:29;11.70;;;2.73;;
72674;SDS011;60752;53.962;9.614;2022-11-20T14:41:30;7.00;;;2.67;;
72674;SDS011;60752;53.962;9.614;2022-11-20T14:46:31;4.73;;;2.30;;
72674;SDS011;60752;53.962;9.614;2022-11-20T14:51:34;5.88;;;2.20;;
72674;SDS011;60752;53.962;9.614;2022-11-20T14:56:36;6.32;;;2.47;;
72674;SDS011;60752;53.962;9.614;2022-11-20T15:01:36;9.43;;;3.50;;
72674;SDS011;60752;53.962;9.614;2022-11-20T15:06:48;7.40;;;3.63;;
72674;SDS011;60752;53.962;9.614;2022-11-20T15:11:52;8.68;;;3.80;;
72674;SDS011;60752;53.962;9.614;2022-11-20T15:16:55;12.32;;;4.90;;
72674;SDS011;60752;53.962;9.614;2022-11-20T15:21:56;11.70;;;5.03;;
72674;SDS011;60752;53.962;9.614;2022-11-20T15:26:57;10.27;;;4.00;;
72674;SDS011;60752;53.962;9.614;2022-11-20T15:31:57;11.83;;;4.07;;
72674;SDS011;60752;53.962;9.614;2022-11-20T15:36:59;11.27;;;3.50;;
72674;SDS011;60752;53.962;9.614;2022-11-20T15:41:59;11.90;;;3.90;;
72674;SDS011;60752;53.962;9.614;2022-11-20T15:47:00;14.57;;;6.10;;
72674;SDS011;60752;53.962;9.614;2022-11-20T15:52:01;15.30;;;5.77;;
72674;SDS011;60752;53.962;9.614;2022-11-20T15:57:02;12.52;;;5.65;;
72674;SDS011;60752;53.962;9.614;2022-11-20T16:02:02;15.07;;;6.97;;
72674;SDS011;60752;53.962;9.614;2022-11-20T16:07:06;16.25;;;6.22;;
72674;SDS011;60752;53.962;9.614;2022-11-20T16:12:08;23.40;;;10.83;;
72674;SDS011;60752;53.962;9.614;2022-11-20T16:17:08;39.35;;;17.02;;
72674;SDS011;60752;53.962;9.614;2022-11-20T16:22:11;34.17;;;12.60;;
72674;SDS011;60752;53.962;9.614;2022-11-20T16:27:11;33.22;;;10.70;;
72674;SDS011;60752;53.962;9.614;2022-11-20T16:32:12;53.27;;;14.43;;
72674;SDS011;60752;53.962;9.614;2022-11-20T16:37:13;46.33;;;13.03;;
72674;SDS011;60752;53.962;9.614;2022-11-20T16:42:14;36.87;;;10.60;;
72674;SDS011;60752;53.962;9.614;2022-11-20T16:47:14;24.05;;;10.05;;
72674;SDS011;60752;53.962;9.614;2022-11-20T16:52:16;19.03;;;7.03;;
72674;SDS011;60752;53.962;9.614;2022-11-20T16:57:16;15.83;;;7.87;;
72674;SDS011;60752;53.962;9.614;2022-11-20T17:02:17;23.03;;;11.17;;
72674;SDS011;60752;53.962;9.614;2022-11-20T17:07:18;23.40;;;9.97;;
72674;SDS011;60752;53.962;9.614;2022-11-20T17:12:19;19.40;;;8.52;;
72674;SDS011;60752;53.962;9.614;2022-11-20T17:17:19;16.87;;;6.23;;
72674;SDS011;60752;53.962;9.614;2022-11-20T17:22:21;7.70;;;3.90;;
72674;SDS011;60752;53.962;9.614;2022-11-20T17:27:21;15.35;;;6.00;;
72674;SDS011;60752;53.962;9.614;2022-11-20T17:32:22;11.17;;;5.23;;
72674;SDS011;60752;53.962;9.614;2022-11-20T17:37:23;15.17;;;6.87;;
72674;SDS011;60752;53.962;9.614;2022-11-20T17:42:24;15.97;;;8.23;;
72674;SDS011;60752;53.962;9.614;2022-11-20T17:47:24;20.47;;;9.97;;
72674;SDS011;60752;53.962;9.614;2022-11-20T17:52:26;12.33;;;6.10;;
72674;SDS011;60752;53.962;9.614;2022-11-20T17:57:26;12.57;;;6.10;;
72674;SDS011;60752;53.962;9.614;2022-11-20T18:02:27;28.63;;;10.70;;
72674;SDS011;60752;53.962;9.614;2022-11-20T18:07:28;23.47;;;9.50;;
72674;SDS011;60752;53.962;9.614;2022-11-20T18:12:32;13.48;;;6.43;;
72674;SDS011;60752;53.962;9.614;2022-11-20T18:17:33;15.00;;;7.03;;
72674;SDS011;60752;53.962;9.614;2022-11-20T18:22:34;14.70;;;5.93;;
72674;SDS011;60752;53.962;9.614;2022-11-20T18:27:35;14.53;;;6.30;;
72674;SDS011;60752;53.962;9.614;2022-11-20T18:32:36;15.63;;;7.20;;
72674;SDS011;60752;53.962;9.614;2022-11-20T18:37:38;13.13;;;6.70;;
72674;SDS011;60752;53.962;9.614;2022-11-20T18:42:38;16.23;;;6.90;;
72674;SDS011;60752;53.962;9.614;2022-11-20T18:47:39;17.80;;;8.23;;
72674;SDS011;60752;53.962;9.614;2022-11-20T18:52:41;15.87;;;8.13;;
72674;SDS011;60752;53.962;9.614;2022-11-20T18:57:41;23.00;;;10.27;;
72674;SDS011;60752;53.962;9.614;2022-11-20T19:02:42;18.47;;;10.00;;
72674;SDS011;60752;53.962;9.614;2022-11-20T19:07:43;27.20;;;11.87;;
72674;SDS011;60752;53.962;9.614;2022-11-20T19:12:44;28.00;;;10.93;;
72674;SDS011;60752;53.962;9.614;2022-11-20T19:17:44;31.20;;;10.93;;
72674;SDS011;60752;53.962;9.614;2022-11-20T19:22:49;28.93;;;11.47;;
72674;SDS011;60752;53.962;9.614;2022-11-20T19:27:50;23.17;;;9.82;;
72674;SDS011;60752;53.962;9.614;2022-11-20T19:32:50;18.97;;;9.77;;
72674;SDS011;60752;53.962;9.614;2022-11-20T19:37:52;17.93;;;10.53;;
72674;SDS011;60752;53.962;9.614;2022-11-20T19:42:52;10.87;;;7.03;;
72674;SDS011;60752;53.962;9.614;2022-11-20T19:47:53;13.10;;;6.80;;
72674;SDS011;60752;53.962;9.614;2022-11-20T19:52:54;20.77;;;9.43;;
72674;SDS011;60752;53.962;9.614;2022-11-20T19:57:55;16.83;;;8.02;;
72674;SDS011;60752;53.962;9.614;2022-11-20T20:02:55;14.67;;;7.10;;
72674;SDS011;60752;53.962;9.614;2022-11-20T20:07:57;14.53;;;6.87;;
72674;SDS011;60752;53.962;9.614;2022-11-20T20:12:57;13.63;;;6.55;;
72674;SDS011;60752;53.962;9.614;2022-11-20T20:17:58;11.63;;;6.20;;
72674;SDS011;60752;53.962;9.614;2022-11-20T20:22:59;23.40;;;7.03;;
72674;SDS011;60752;53.962;9.614;2022-11-20T20:28:00;13.98;;;5.53;;
72674;SDS011;60752;53.962;9.614;2022-11-20T20:33:00;21.27;;;6.87;;
72674;SDS011;60752;53.962;9.614;2022-11-20T20:38:02;31.20;;;8.03;;
72674;SDS011;60752;53.962;9.614;2022-11-20T20:43:02;19.15;;;5.47;;
72674;SDS011;60752;53.962;9.614;2022-11-20T20:48:03;29.03;;;7.50;;
72674;SDS011;60752;53.962;9.614;2022-11-20T20:53:05;24.10;;;6.60;;
72674;SDS011;60752;53.962;9.614;2022-11-20T20:58:06;14.20;;;4.72;;
72674;SDS011;60752;53.962;9.614;2022-11-20T21:03:09;9.55;;;4.05;;
72674;SDS011;60752;53.962;9.614;2022-11-20T21:08:11;12.17;;;5.70;;
72674;SDS011;60752;53.962;9.614;2022-11-20T21:13:11;13.90;;;4.95;;
72674;SDS011;60752;53.962;9.614;2022-11-20T21:18:12;13.13;;;5.13;;
72674;SDS011;60752;53.962;9.614;2022-11-20T21:23:14;7.77;;;3.73;;
72674;SDS011;60752;53.962;9.614;2022-11-20T21:28:14;8.50;;;4.27;;
72674;SDS011;60752;53.962;9.614;2022-11-20T21:33:14;7.63;;;3.93;;
72674;SDS011;60752;53.962;9.614;2022-11-20T21:38:16;8.50;;;3.73;;
72674;SDS011;60752;53.962;9.614;2022-11-20T21:43:17;8.80;;;4.00;;
72674;SDS011;60752;53.962;9.614;2022-11-20T21:48:17;9.43;;;3.90;;
72674;SDS011;60752;53.962;9.614;2022-11-20T21:53:19;8.88;;;4.70;;
72674;SDS011;60752;53.962;9.614;2022-11-20T21:58:19;17.03;;;6.33;;
72674;SDS011;60752;53.962;9.614;2022-11-20T22:03:20;27.50;;;10.90;;
72674;SDS011;60752;53.962;9.614;2022-11-20T22:08:22;21.42;;;6.70;;
72674;SDS011;60752;53.962;9.614;2022-11-20T22:13:23;8.80;;;4.30;;
72674;SDS011;60752;53.962;9.614;2022-11-20T22:18:24;9.50;;;3.05;;
72674;SDS011;60752;53.962;9.614;2022-11-20T22:23:26;7.23;;;2.87;;
72674;SDS011;60752;53.962;9.614;2022-11-20T22:28:26;8.88;;;2.80;;
72674;SDS011;60752;53.962;9.614;2022-11-20T22:33:27;6.67;;;3.00;;
72674;SDS011;60752;53.962;9.614;2022-11-20T22:38:30;7.63;;;3.47;;
72674;SDS011;60752;53.962;9.614;2022-11-20T22:43:31;12.70;;;5.80;;
72674;SDS011;60752;53.962;9.614;2022-11-20T22:48:32;17.88;;;6.97;;
72674;SDS011;60752;53.962;9.614;2022-11-20T22:53:34;17.13;;;6.60;;
72674;SDS011;60752;53.962;9.614;2022-11-20T22:58:37;8.88;;;3.47;;
72674;SDS011;60752;53.962;9.614;2022-11-20T23:03:39;6.63;;;3.03;;
72674;SDS011;60752;53.962;9.614;2022-11-20T23:08:41;9.37;;;3.63;;
72674;SDS011;60752;53.962;9.614;2022-11-20T23:13:42;7.55;;;3.15;;
72674;SDS011;60752;53.962;9.614;2022-11-20T23:18:43;6.13;;;3.05;;
72674;SDS011;60752;53.962;9.614;2022-11-20T23:23:47;11.07;;;3.73;;
72674;SDS011;60752;53.962;9.614;2022-11-20T23:28:49;8.47;;;3.53;;
72674;SDS011;60752;53.962;9.614;2022-11-20T23:33:49;7.13;;;3.37;;
72674;SDS011;60752;53.962;9.614;2022-11-20T23:38:51;7.93;;;3.93;;
72674;SDS011;60752;53.962;9.614;2022-11-20T23:43:52;9.47;;;3.57;;
72674;SDS011;60752;53.962;9.614;2022-11-20T23:48:52;9.13;;;3.35;;
72674;SDS011;60752;53.962;9.614;2022-11-20T23:53:54;8.17;;;3.67;;
72674;SDS011;60752;53.962;9.614;2022-11-20T23:58:54;8.23;;;3.90;;
